Погода Паса Куатрона 2 недели

Минас-Жерайс, Бразилия

16 - 28 июля
  • 16июля
    Сегодня
    +9°
    +21°
    Практически безоблачно
    ВремяПогодаТемператураВлажностьДавлениеВетер, м/сВероятность осадков
    00:00Облачно с прояснениями+12°C98 %673 мм1.7 м/с5 %
    03:00Облачно с прояснениями+12°C99 %672 мм1.4 м/с4 %
    06:00Облачно с прояснениями+11°C98 %671 мм1.1 м/с3 %
    09:00Ясно и безоблачно+14°C82 %673 мм0.4 м/с3 %
    12:00Практически безоблачно+20°C51 %674 мм1.5 м/с3 %
    15:00Практически безоблачно+21°C51 %673 мм0.8 м/с13 %
    18:00Ясно и безоблачно+17°C60 %673 мм0.6 м/с14 %
    21:00Ясно и безоблачно+15°C81 %673 мм0.8 м/с6 %
  • 17июля
    Среда
    +10°
    +22°
    Небольшая облачность
    ВремяПогодаТемператураВлажностьДавлениеВетер, м/сВероятность осадков
    00:00Ясно и безоблачно+11°C89 %672 мм1.0 м/с2 %
    03:00Ясно и безоблачно+11°C88 %671 мм0.2 м/с5 %
    06:00Ясно и безоблачно+12°C79 %672 мм0.3 м/с5 %
    09:00Ясно и безоблачно+14°C68 %673 мм0.3 м/с3 %
    12:00Практически безоблачно+20°C52 %674 мм0.8 м/с5 %
    15:00Небольшая облачность+22°C48 %672 мм0.7 м/с14 %
    18:00Небольшая облачность+17°C79 %671 мм1.2 м/с19 %
    21:00Ясно и безоблачно+16°C86 %672 мм1.3 м/с14 %
  • 18июля
    Четверг
    +10°
    +22°
    Ясно и безоблачно
    ВремяПогодаТемператураВлажностьДавлениеВетер, м/сВероятность осадков
    00:00Ясно и безоблачно+11°C90 %670 мм0.7 м/с2 %
    03:00Ясно и безоблачно+12°C84 %669 мм0.2 м/с5 %
    06:00Ясно и безоблачно+13°C79 %670 мм0.5 м/с5 %
    09:00Ясно и безоблачно+14°C66 %671 мм0.9 м/с5 %
    12:00Практически безоблачно+21°C50 %673 мм0.7 м/с5 %
    15:00Ясно и безоблачно+22°C55 %672 мм1.9 м/с4 %
    18:00Ясно и безоблачно+16°C74 %671 мм1.7 м/с5 %
    21:00Ясно и безоблачно+15°C87 %672 мм2.0 м/с5 %
  • 19июля
    Пятница
    +11°
    +22°
    Ясно и безоблачно
    ВремяПогодаТемператураВлажностьДавлениеВетер, м/сВероятность осадков
    00:00Облачно с прояснениями+11°C98 %671 мм1.8 м/с5 %
    03:00Облачно с прояснениями+11°C98 %671 мм2.1 м/с4 %
    06:00Облачно с прояснениями+10°C99 %671 мм1.6 м/с5 %
    09:00Небольшая облачность+13°C84 %673 мм1.0 м/с5 %
    12:00Ясно и безоблачно+19°C58 %674 мм0.2 м/с5 %
    15:00Ясно и безоблачно+21°C58 %673 мм1.1 м/с5 %
    18:00Ясно и безоблачно+16°C79 %672 мм1.4 м/с5 %
    21:00Ясно и безоблачно+12°C92 %672 мм0.4 м/с5 %
Мы используем cookies
Соглашаюсь